Time;durP1;ratioP1;P1;durP2;ratioP2;P2;SDS_P1;SDS_P2;PMS_P1;PMS_P2;Temp;Humidity;BMP_temperature;BMP_pressure;BME280_temperature;BME280_humidity;BME280_pressure;Samples;Min_cycle;Max_cycle;Signal;HPM_P1;HPM_P2
2023/03/02 00:00:45;;;;;;;40.30;21.17;;;2.70;99.90;;;;;;4956249;28;20086;-70
2023/03/02 00:03:12;;;;;;;39.20;20.52;;;2.70;99.90;;;;;;4955674;29;20035;-70
2023/03/02 00:05:39;;;;;;;37.58;19.45;;;2.70;99.90;;;;;;4954805;28;20498;-70
2023/03/02 00:08:07;;;;;;;36.10;19.02;;;2.70;99.90;;;;;;4956100;28;20027;-70
2023/03/02 00:10:34;;;;;;;37.42;20.05;;;2.70;99.90;;;;;;4955265;29;20038;-70
2023/03/02 00:12:59;;;;;;;41.28;20.38;;;2.70;99.90;;;;;;4954906;29;20122;-70
2023/03/02 00:15:25;;;;;;;44.63;20.70;;;2.70;99.90;;;;;;4955834;29;20122;-70
2023/03/02 00:17:51;;;;;;;39.75;21.40;;;2.70;99.90;;;;;;4954783;29;20023;-70
2023/03/02 00:20:17;;;;;;;46.45;22.70;;;2.80;99.90;;;;;;4954735;29;20031;-70
2023/03/02 00:22:44;;;;;;;47.13;21.30;;;2.80;99.90;;;;;;4955377;29;20126;-70
2023/03/02 00:25:12;;;;;;;40.28;21.33;;;2.80;99.90;;;;;;4956052;28;20023;-70
2023/03/02 00:27:38;;;;;;;44.53;21.77;;;2.80;99.90;;;;;;4955945;28;20534;-70
2023/03/02 00:30:05;;;;;;;42.72;21.27;;;2.80;99.90;;;;;;4954468;29;20052;-70
2023/03/02 00:32:31;;;;;;;43.60;21.00;;;2.80;99.90;;;;;;4954654;29;20035;-70
2023/03/02 00:34:57;;;;;;;39.88;20.52;;;2.80;99.90;;;;;;4954614;29;20535;-70
2023/03/02 00:37:24;;;;;;;38.42;19.73;;;2.80;99.90;;;;;;4954638;29;20463;-70
2023/03/02 00:39:52;;;;;;;41.33;20.80;;;2.80;99.90;;;;;;4954551;29;20057;-70
2023/03/02 00:42:19;;;;;;;39.47;19.63;;;2.80;99.90;;;;;;4955812;28;20038;-70
2023/03/02 00:44:44;;;;;;;39.78;20.67;;;2.80;99.90;;;;;;4956040;28;20292;-70
2023/03/02 00:47:10;;;;;;;42.50;21.95;;;2.80;99.90;;;;;;4954696;29;20467;-70
2023/03/02 00:49:36;;;;;;;39.40;20.90;;;2.80;99.90;;;;;;4955540;28;20035;-70
2023/03/02 00:52:03;;;;;;;43.08;20.42;;;2.80;99.90;;;;;;4957741;29;20063;-71
2023/03/02 00:54:28;;;;;;;41.47;20.08;;;2.80;99.90;;;;;;4957271;28;20023;-71
2023/03/02 00:56:54;;;;;;;41.67;20.40;;;2.80;99.90;;;;;;4957710;29;20030;-70
2023/03/02 00:59:25;;;;;;;38.78;19.65;;;2.80;99.90;;;;;;4955629;29;20031;-70
2023/03/02 01:01:56;;;;;;;41.08;21.95;;;2.80;99.90;;;;;;4957076;28;20054;-71
2023/03/02 01:04:28;;;;;;;36.17;19.90;;;2.80;99.90;;;;;;4959129;29;20031;-70
2023/03/02 01:06:55;;;;;;;41.63;21.30;;;2.80;99.90;;;;;;4960218;28;20031;-70
2023/03/02 01:09:21;;;;;;;45.75;20.45;;;2.80;99.90;;;;;;4958275;29;20046;-71
2023/03/02 01:11:47;;;;;;;39.90;21.27;;;2.80;99.90;;;;;;4955558;29;20028;-70
2023/03/02 01:14:13;;;;;;;41.30;20.77;;;2.90;99.90;;;;;;4956225;29;20038;-70
2023/03/02 01:16:38;;;;;;;38.88;20.13;;;2.90;99.90;;;;;;4957479;28;20432;-70
2023/03/02 01:19:04;;;;;;;46.85;21.38;;;2.80;99.90;;;;;;4958401;29;20095;-70
2023/03/02 01:21:30;;;;;;;39.58;19.40;;;2.80;99.90;;;;;;4958289;29;20043;-70
2023/03/02 01:23:56;;;;;;;42.53;20.85;;;2.80;99.90;;;;;;4959146;29;20440;-71
2023/03/02 01:26:21;;;;;;;37.22;20.10;;;2.80;99.90;;;;;;4959294;28;20023;-70
2023/03/02 01:28:47;;;;;;;36.15;19.67;;;2.80;99.90;;;;;;4959271;28;20023;-71
2023/03/02 01:31:13;;;;;;;44.20;21.95;;;2.90;99.90;;;;;;4959267;29;20047;-70
2023/03/02 01:33:39;;;;;;;38.83;19.75;;;2.90;99.90;;;;;;4959177;28;20035;-70
2023/03/02 01:36:05;;;;;;;39.63;20.70;;;2.90;99.90;;;;;;4957896;29;20027;-70
2023/03/02 01:38:31;;;;;;;44.80;20.63;;;2.90;99.90;;;;;;4959110;28;20027;-70
2023/03/02 01:40:56;;;;;;;41.38;21.45;;;2.90;99.90;;;;;;4958975;28;20390;-70
2023/03/02 01:43:22;;;;;;;46.65;20.80;;;2.90;99.90;;;;;;4957895;29;20039;-71
2023/03/02 01:45:54;;;;;;;43.40;21.17;;;2.90;99.90;;;;;;4958930;28;20027;-71
2023/03/02 01:48:28;;;;;;;40.45;20.48;;;2.90;99.90;;;;;;4957507;29;20028;-70
2023/03/02 01:50:55;;;;;;;41.92;21.02;;;2.90;99.90;;;;;;4957799;29;20042;-70
2023/03/02 01:53:23;;;;;;;45.58;20.77;;;2.90;99.90;;;;;;4958658;28;20032;-70
2023/03/02 01:55:49;;;;;;;47.92;22.88;;;2.90;99.90;;;;;;4958404;28;20031;-71
2023/03/02 01:58:16;;;;;;;43.13;21.20;;;3.00;99.90;;;;;;4957304;29;20066;-70
2023/03/02 02:00:42;;;;;;;37.42;20.92;;;3.00;99.90;;;;;;4958419;28;20034;-70
2023/03/02 02:03:19;;;;;;;43.40;20.65;;;3.00;99.90;;;;;;4958799;28;20035;-70
2023/03/02 02:05:54;;;;;;;41.15;20.42;;;3.00;99.90;;;;;;4957305;29;20488;-70
2023/03/02 02:08:20;;;;;;;38.78;20.42;;;3.00;99.90;;;;;;4957332;29;20027;-71
2023/03/02 02:10:46;;;;;;;33.70;19.27;;;3.10;99.90;;;;;;4958424;28;20035;-70
2023/03/02 02:13:12;;;;;;;38.15;19.67;;;3.10;99.90;;;;;;4958329;29;20387;-71
2023/03/02 02:15:39;;;;;;;38.95;20.67;;;3.10;99.90;;;;;;4958299;29;20281;-71
2023/03/02 02:18:05;;;;;;;38.97;20.13;;;3.10;99.90;;;;;;4957001;29;20388;-70
2023/03/02 02:20:43;;;;;;;40.60;20.58;;;3.10;99.90;;;;;;4956887;29;20389;-71
2023/03/02 02:23:32;;;;;;;40.45;20.77;;;3.10;99.90;;;;;;4956948;29;20042;-71
2023/03/02 02:26:01;;;;;;;42.47;19.85;;;3.10;99.90;;;;;;4956930;29;20031;-70
2023/03/02 02:28:33;;;;;;;36.33;19.90;;;3.00;99.90;;;;;;4957950;28;20471;-71
2023/03/02 02:31:18;;;;;;;37.53;19.55;;;3.00;99.90;;;;;;4957630;28;20051;-70
2023/03/02 02:33:48;;;;;;;40.15;20.13;;;3.00;99.90;;;;;;4958113;28;20463;-71
2023/03/02 02:36:24;;;;;;;44.90;20.48;;;3.10;99.90;;;;;;4957155;29;20027;-71
2023/03/02 02:38:54;;;;;;;42.90;20.00;;;3.00;99.90;;;;;;4957022;29;20035;-70
2023/03/02 02:41:32;;;;;;;43.13;20.95;;;3.00;99.90;;;;;;4957539;28;20106;-70
2023/03/02 02:43:58;;;;;;;43.05;21.10;;;3.00;99.90;;;;;;4957531;28;20090;-71
2023/03/02 02:46:24;;;;;;;43.70;21.63;;;2.90;99.90;;;;;;4957669;29;20053;-70
2023/03/02 02:48:50;;;;;;;50.70;22.40;;;2.90;99.90;;;;;;4956483;29;20035;-71
2023/03/02 02:51:22;;;;;;;45.50;23.77;;;2.90;99.90;;;;;;4956834;29;20420;-71
2023/03/02 02:54:01;;;;;;;45.92;22.95;;;2.90;99.90;;;;;;4958131;28;20070;-71
2023/03/02 02:56:28;;;;;;;;;;;2.90;99.90;;;;;;4956764;29;20028;-70
2023/03/02 02:58:56;;;;;;;43.95;22.00;;;2.80;99.90;;;;;;4972677;28;20333;-70
2023/03/02 03:01:25;;;;;;;46.20;23.05;;;2.80;99.90;;;;;;4955806;29;20031;-70
2023/03/02 03:03:59;;;;;;;;;;;2.70;99.90;;;;;;4957792;28;20031;-70
2023/03/02 03:06:36;;;;;;;42.65;20.55;;;2.60;99.90;;;;;;4957102;28;19929;-70
2023/03/02 03:09:03;;;;;;;54.17;23.60;;;2.50;99.90;;;;;;4957247;28;20059;-70
2023/03/02 03:11:38;;;;;;;48.70;22.83;;;2.40;99.90;;;;;;4956164;29;20040;-71
2023/03/02 03:14:14;;;;;;;44.63;22.23;;;2.30;99.90;;;;;;4957437;28;20034;-70
2023/03/02 03:16:42;;;;;;;40.15;20.13;;;2.10;99.90;;;;;;4957149;28;20031;-70
2023/03/02 03:19:17;;;;;;;41.45;20.13;;;2.00;99.90;;;;;;4957358;28;20468;-70
2023/03/02 03:21:43;;;;;;;45.92;21.75;;;1.90;99.90;;;;;;4955873;29;20036;-70
2023/03/02 03:24:09;;;;;;;46.05;21.40;;;1.70;99.90;;;;;;4955505;29;20027;-70
2023/03/02 03:26:35;;;;;;;43.42;22.23;;;1.60;99.90;;;;;;4955705;29;20479;-71
2023/03/02 03:29:01;;;;;;;51.55;23.23;;;1.50;99.90;;;;;;4956126;29;20035;-70
2023/03/02 03:31:28;;;;;;;49.35;21.48;;;1.40;99.90;;;;;;4955767;29;20058;-70
2023/03/02 03:33:55;;;;;;;51.15;22.60;;;1.40;99.90;;;;;;4955556;29;20039;-70
2023/03/02 03:36:21;;;;;;;52.22;22.80;;;1.20;99.90;;;;;;4956830;28;20019;-70
2023/03/02 03:38:47;;;;;;;43.65;22.20;;;1.10;99.90;;;;;;4955164;28;20030;-70
2023/03/02 03:41:14;;;;;;;46.83;23.40;;;1.00;99.90;;;;;;4955351;29;20118;-70
2023/03/02 03:43:39;;;;;;;45.95;22.27;;;1.00;99.90;;;;;;4956460;28;20035;-70
2023/03/02 03:46:05;;;;;;;50.03;22.00;;;0.90;99.90;;;;;;4955372;29;20030;-70
2023/03/02 03:48:31;;;;;;;48.45;23.15;;;0.80;99.90;;;;;;4955411;29;20031;-70
2023/03/02 03:50:58;;;;;;;49.35;24.77;;;0.70;99.90;;;;;;4956847;28;20050;-70
2023/03/02 03:53:24;;;;;;;51.88;22.33;;;0.60;99.90;;;;;;4956481;28;20027;-70
2023/03/02 03:55:50;;;;;;;49.65;23.48;;;0.60;99.90;;;;;;4955324;29;20409;-70
2023/03/02 03:58:16;;;;;;;52.67;24.25;;;0.50;99.90;;;;;;4955386;29;20024;-70
2023/03/02 04:00:42;;;;;;;52.20;24.27;;;0.40;99.90;;;;;;4956405;29;20114;-70
2023/03/02 04:03:08;;;;;;;56.70;24.58;;;0.30;99.90;;;;;;4955126;29;20118;-70
2023/03/02 04:05:34;;;;;;;52.13;24.77;;;0.30;99.90;;;;;;4955127;29;20434;-70
2023/03/02 04:08:00;;;;;;;52.67;24.77;;;0.20;99.90;;;;;;4955136;29;20031;-70
2023/03/02 04:10:27;;;;;;;54.92;25.02;;;0.20;99.90;;;;;;4955324;29;20031;-69
2023/03/02 04:12:57;;;;;;;54.13;24.33;;;0.20;99.90;;;;;;4955293;29;20031;-71
2023/03/02 04:15:26;;;;;;;59.35;25.98;;;0.10;99.90;;;;;;4956615;29;20024;-70
2023/03/02 04:17:52;;;;;;;60.50;27.55;;;0.10;99.90;;;;;;4955903;28;20031;-70
2023/03/02 04:20:19;;;;;;;60.08;28.40;;;0.00;99.90;;;;;;4956119;28;20061;-70
2023/03/02 04:22:47;;;;;;;70.80;29.83;;;-0.10;99.90;;;;;;4954746;29;20055;-70
2023/03/02 04:25:18;;;;;;;66.57;29.92;;;-0.10;99.90;;;;;;4954982;29;20031;-70
2023/03/02 04:27:48;;;;;;;70.68;30.67;;;-0.20;99.90;;;;;;4954927;29;20416;-71
2023/03/02 04:30:16;;;;;;;64.65;29.45;;;-0.10;99.90;;;;;;4955074;29;20078;-70
2023/03/02 04:32:42;;;;;;;69.30;29.70;;;-0.10;99.90;;;;;;4954737;29;20130;-70
2023/03/02 04:35:10;;;;;;;66.07;29.92;;;-0.20;99.90;;;;;;4954735;29;20047;-70
2023/03/02 04:37:39;;;;;;;63.70;29.95;;;-0.20;99.90;;;;;;4955876;28;20042;-70
2023/03/02 04:40:07;;;;;;;72.13;30.73;;;-0.20;99.90;;;;;;4955494;28;20455;-70
2023/03/02 04:42:32;;;;;;;70.47;31.40;;;-0.20;99.90;;;;;;4953734;29;20039;-70
2023/03/02 04:44:58;;;;;;;74.22;31.80;;;-0.20;99.90;;;;;;4954683;29;20490;-69
2023/03/02 04:47:26;;;;;;;64.93;31.45;;;-0.20;99.90;;;;;;4956112;28;20098;-70
2023/03/02 04:49:53;;;;;;;73.57;32.30;;;-0.20;99.90;;;;;;4955793;28;20074;-70
2023/03/02 04:52:20;;;;;;;66.70;29.42;;;-0.30;99.90;;;;;;4957592;29;20027;-70
2023/03/02 04:54:46;;;;;;;72.97;32.00;;;-0.40;99.90;;;;;;4959002;29;20051;-70
2023/03/02 04:57:12;;;;;;;76.75;32.75;;;-0.40;99.90;;;;;;4959129;29;20027;-70
2023/03/02 04:59:38;;;;;;;79.00;34.22;;;-0.40;99.90;;;;;;4959835;29;20035;-70
2023/03/02 05:02:04;;;;;;;74.50;33.30;;;-0.40;99.90;;;;;;4960405;29;20039;-70
2023/03/02 05:04:31;;;;;;;73.05;33.42;;;-0.50;99.90;;;;;;4960832;28;20031;-70
2023/03/02 05:06:57;;;;;;;78.63;33.42;;;-0.50;99.90;;;;;;4959142;29;20034;-70
2023/03/02 05:09:27;;;;;;;73.72;33.08;;;-0.50;99.90;;;;;;4958399;29;20027;-70
2023/03/02 05:11:58;;;;;;;81.00;34.20;;;-0.60;99.90;;;;;;4958440;29;20082;-72
2023/03/02 05:14:24;;;;;;;76.03;33.13;;;-0.60;99.90;;;;;;4958491;29;20031;-70
2023/03/02 05:16:50;;;;;;;77.05;35.53;;;-0.60;99.90;;;;;;4959853;28;20027;-71
2023/03/02 05:19:17;;;;;;;82.47;36.28;;;-0.60;99.90;;;;;;4958357;29;20090;-68
2023/03/02 05:21:43;;;;;;;83.18;35.83;;;-0.60;99.90;;;;;;4959184;28;20471;-71
2023/03/02 05:24:09;;;;;;;78.57;35.72;;;-0.60;99.90;;;;;;4958880;29;20035;-71
2023/03/02 05:26:35;;;;;;;80.47;35.42;;;-0.60;99.90;;;;;;4959625;28;20028;-68
2023/03/02 05:29:01;;;;;;;78.03;34.28;;;-0.70;99.90;;;;;;4958046;29;20369;-67
2023/03/02 05:31:36;;;;;;;75.55;34.83;;;-0.60;99.90;;;;;;4957513;29;20459;-68
2023/03/02 05:34:07;;;;;;;79.85;33.88;;;-0.70;99.90;;;;;;4957982;29;20386;-68
2023/03/02 05:36:33;;;;;;;79.60;34.47;;;-0.70;99.90;;;;;;4957906;29;20062;-67
2023/03/02 05:38:59;;;;;;;81.53;34.45;;;-0.70;99.90;;;;;;4958006;29;20114;-68
2023/03/02 05:41:25;;;;;;;78.68;36.28;;;-0.70;99.90;;;;;;4958076;29;20121;-70
2023/03/02 05:43:51;;;;;;;76.65;34.58;;;-0.70;99.90;;;;;;4957845;29;20151;-70
2023/03/02 05:46:17;;;;;;;76.32;33.40;;;-0.60;99.90;;;;;;4957583;29;20057;-71
2023/03/02 05:48:44;;;;;;;78.03;32.75;;;-0.70;99.90;;;;;;4958297;29;20027;-68
2023/03/02 05:51:10;;;;;;;74.35;33.10;;;-0.70;99.90;;;;;;4957638;29;20039;-67
2023/03/02 05:53:35;;;;;;;70.97;32.75;;;-0.70;99.90;;;;;;4958875;28;20027;-67
2023/03/02 05:56:02;;;;;;;72.00;32.95;;;-0.60;99.90;;;;;;4957398;29;20109;-68
2023/03/02 05:58:28;;;;;;;72.90;32.42;;;-0.70;99.90;;;;;;4957707;29;20383;-68
2023/03/02 06:00:59;;;;;;;74.10;32.85;;;-0.60;99.90;;;;;;4957400;29;20122;-68
2023/03/02 06:03:25;;;;;;;71.13;32.42;;;-0.60;99.90;;;;;;4957190;28;20117;-69
2023/03/02 06:05:51;;;;;;;74.60;33.45;;;-0.60;99.90;;;;;;4957408;29;20058;-69
2023/03/02 06:08:18;;;;;;;80.88;33.60;;;-0.60;99.90;;;;;;4957379;29;20035;-69
2023/03/02 06:10:44;;;;;;;81.70;35.53;;;-0.60;99.90;;;;;;4957391;29;20163;-68
2023/03/02 06:13:10;;;;;;;90.13;37.60;;;-0.60;99.90;;;;;;4958122;29;20027;-69
2023/03/02 06:15:38;;;;;;;85.72;35.85;;;-0.50;99.90;;;;;;4957308;29;20031;-68
2023/03/02 06:18:04;;;;;;;88.80;37.47;;;-0.50;99.90;;;;;;4957427;29;20031;-69
2023/03/02 06:20:32;;;;;;;88.03;37.17;;;-0.40;99.90;;;;;;4957163;29;20061;-69
2023/03/02 06:22:58;;;;;;;86.30;36.45;;;-0.40;99.90;;;;;;4957138;29;20035;-69
2023/03/02 06:25:24;;;;;;;77.45;35.83;;;-0.30;99.90;;;;;;4956979;29;20468;-69
2023/03/02 06:27:52;;;;;;;80.20;34.10;;;-0.30;99.90;;;;;;4958286;28;20039;-69
2023/03/02 06:30:23;;;;;;;77.30;34.30;;;-0.20;99.90;;;;;;4957050;29;20407;-69
2023/03/02 06:32:49;;;;;;;80.75;34.30;;;-0.20;99.90;;;;;;4958042;28;20268;-69
2023/03/02 06:35:15;;;;;;;75.90;35.10;;;-0.10;99.90;;;;;;4958085;28;20032;-69
2023/03/02 06:37:41;;;;;;;86.20;37.35;;;-0.10;99.90;;;;;;4956876;29;20169;-69
2023/03/02 06:40:10;;;;;;;76.63;34.13;;;0.00;99.90;;;;;;4956559;29;20129;-68
2023/03/02 06:42:37;;;;;;;73.18;34.25;;;0.00;99.90;;;;;;4958013;28;20023;-69
2023/03/02 06:45:04;;;;;;;78.78;36.67;;;0.10;99.90;;;;;;4956773;29;20035;-69
2023/03/02 06:47:30;;;;;;;78.82;36.65;;;0.30;99.90;;;;;;4956484;29;20035;-69
2023/03/02 06:49:55;;;;;;;72.03;33.65;;;0.50;99.90;;;;;;4956410;29;20030;-69
2023/03/02 06:52:21;;;;;;;80.70;35.40;;;0.70;99.90;;;;;;4956477;29;20030;-69
2023/03/02 06:54:47;;;;;;;75.32;34.50;;;0.90;99.90;;;;;;4956557;29;20509;-69
2023/03/02 06:57:12;;;;;;;80.50;35.00;;;1.10;99.90;;;;;;4957604;28;20435;-69
2023/03/02 06:59:38;;;;;;;69.50;33.53;;;1.30;99.90;;;;;;4956664;29;20122;-69
2023/03/02 07:02:04;;;;;;;77.05;33.65;;;1.50;99.90;;;;;;4957194;29;20067;-69
2023/03/02 07:04:30;;;;;;;85.15;35.95;;;1.70;99.90;;;;;;4957140;28;20542;-69
2023/03/02 07:06:56;;;;;;;74.85;32.95;;;1.80;99.90;;;;;;4957365;29;20027;-69
2023/03/02 07:09:21;;;;;;;72.60;33.58;;;2.00;99.90;;;;;;4956221;29;20379;-69
2023/03/02 07:11:47;;;;;;;68.95;33.03;;;2.20;99.90;;;;;;4957462;28;20062;-69
2023/03/02 07:14:13;;;;;;;76.70;37.28;;;2.40;99.90;;;;;;4956213;28;20027;-69
2023/03/02 07:16:39;;;;;;;74.13;34.90;;;2.50;99.90;;;;;;4956031;29;20028;-69
2023/03/02 07:19:04;;;;;;;68.68;34.90;;;2.70;99.90;;;;;;4957097;28;20020;-69
2023/03/02 07:21:30;;;;;;;75.95;34.88;;;2.90;99.90;;;;;;4957006;29;20383;-69
2023/03/02 07:23:56;;;;;;;74.55;34.70;;;3.10;99.90;;;;;;4957168;29;20109;-69
2023/03/02 07:26:21;;;;;;;74.97;33.50;;;3.30;99.90;;;;;;4957419;29;20024;-69
2023/03/02 07:28:47;;;;;;;67.82;33.45;;;3.60;99.90;;;;;;4955780;29;20038;-69
2023/03/02 07:31:13;;;;;;;68.63;34.45;;;3.80;99.90;;;;;;4955629;29;20053;-68
2023/03/02 07:33:39;;;;;;;68.60;33.13;;;4.10;99.90;;;;;;4957123;29;20468;-69
2023/03/02 07:36:06;;;;;;;72.40;33.30;;;4.40;99.90;;;;;;4955703;29;20035;-69
2023/03/02 07:38:33;;;;;;;76.75;35.45;;;4.80;99.90;;;;;;4955435;29;20479;-69
2023/03/02 07:40:59;;;;;;;72.95;35.88;;;5.10;99.90;;;;;;4955350;29;20027;-69
2023/03/02 07:43:26;;;;;;;68.82;35.60;;;5.40;99.90;;;;;;4956369;29;20506;-68
2023/03/02 07:45:52;;;;;;;68.47;33.47;;;5.70;99.90;;;;;;4956586;28;20027;-69
2023/03/02 07:48:18;;;;;;;68.05;33.65;;;6.00;99.90;;;;;;4956685;28;20114;-68
2023/03/02 07:50:44;;;;;;;61.85;31.70;;;6.40;99.90;;;;;;4956526;28;20383;-68
2023/03/02 07:53:10;;;;;;;69.03;34.35;;;6.70;99.90;;;;;;4956182;28;20031;-68
2023/03/02 07:55:42;;;;;;;67.53;32.97;;;7.10;99.90;;;;;;4956100;29;20114;-68
2023/03/02 07:58:07;;;;;;;77.70;34.40;;;7.50;99.90;;;;;;4956589;28;20464;-68
2023/03/02 08:00:35;;;;;;;82.30;35.33;;;7.80;98.20;;;;;;4955138;29;20031;-68
2023/03/02 08:03:01;;;;;;;57.72;31.65;;;8.10;97.10;;;;;;4956295;28;20034;-68
2023/03/02 08:05:28;;;;;;;62.80;30.55;;;8.20;93.90;;;;;;4955862;29;20558;-68
2023/03/02 08:07:53;;;;;;;61.67;30.38;;;8.30;92.20;;;;;;4955923;29;20039;-68
2023/03/02 08:10:19;;;;;;;56.80;30.75;;;8.60;90.80;;;;;;4955910;29;20027;-68
2023/03/02 08:12:45;;;;;;;55.70;31.85;;;8.90;88.60;;;;;;4955904;28;20027;-68
2023/03/02 08:15:11;;;;;;;57.63;31.38;;;9.30;84.40;;;;;;4955243;29;20439;-68
2023/03/02 08:17:37;;;;;;;55.65;30.35;;;9.60;81.60;;;;;;4955799;28;20032;-68
2023/03/02 08:20:03;;;;;;;64.10;32.53;;;9.90;79.60;;;;;;4954866;29;20058;-68
2023/03/02 08:22:29;;;;;;;56.20;31.73;;;9.80;76.60;;;;;;4956336;28;20023;-68
2023/03/02 08:24:55;;;;;;;60.97;31.52;;;9.90;76.30;;;;;;4954637;28;20126;-68
2023/03/02 08:27:21;;;;;;;56.05;32.28;;;10.00;73.80;;;;;;4955100;29;20431;-68
2023/03/02 08:29:46;;;;;;;60.60;32.88;;;9.90;72.80;;;;;;4954572;29;20058;-68
2023/03/02 08:32:12;;;;;;;58.97;30.08;;;10.00;74.50;;;;;;4954769;29;20043;-68
2023/03/02 08:34:38;;;;;;;66.15;32.13;;;10.20;73.20;;;;;;4955978;29;20036;-68
2023/03/02 08:37:04;;;;;;;66.07;32.30;;;10.40;72.40;;;;;;4955149;29;20034;-68
2023/03/02 08:39:30;;;;;;;59.83;31.50;;;10.70;71.90;;;;;;4955897;29;20027;-68
2023/03/02 08:41:56;;;;;;;74.32;31.95;;;10.80;67.60;;;;;;4954841;29;20127;-68
2023/03/02 08:44:22;;;;;;;66.97;33.38;;;10.90;66.00;;;;;;4954774;29;20040;-69
2023/03/02 08:46:48;;;;;;;59.67;31.50;;;11.00;66.10;;;;;;4954517;29;20062;-68
2023/03/02 08:49:15;;;;;;;55.42;31.25;;;11.20;64.80;;;;;;4955467;28;20555;-68
2023/03/02 08:51:41;;;;;;;52.13;30.73;;;11.40;63.00;;;;;;4954447;29;20427;-69
2023/03/02 08:54:08;;;;;;;59.45;33.42;;;11.50;62.50;;;;;;4954711;29;20030;-68
2023/03/02 08:56:36;;;;;;;49.88;31.60;;;11.60;61.70;;;;;;4954757;29;20490;-72
2023/03/02 08:59:09;;;;;;;60.53;32.53;;;11.50;61.10;;;;;;4957745;28;20078;-69
2023/03/02 09:01:36;;;;;;;58.28;31.38;;;11.90;61.10;;;;;;4956746;29;20035;-68
2023/03/02 09:04:03;;;;;;;60.40;31.95;;;12.10;59.30;;;;;;4957884;28;20111;-69
2023/03/02 09:06:32;;;;;;;60.40;31.30;;;11.90;59.50;;;;;;4955847;28;20082;-68
2023/03/02 09:08:57;;;;;;;53.53;31.60;;;12.10;59.30;;;;;;4955602;28;20074;-68
2023/03/02 09:11:24;;;;;;;54.97;31.65;;;12.30;58.80;;;;;;4955507;28;20302;-68
2023/03/02 09:13:50;;;;;;;54.05;29.80;;;12.70;56.90;;;;;;4955196;28;20023;-69
2023/03/02 09:16:16;;;;;;;48.60;29.20;;;12.80;56.60;;;;;;4955579;28;20383;-69
2023/03/02 09:18:42;;;;;;;58.58;30.40;;;12.90;56.20;;;;;;4954359;29;20035;-68
2023/03/02 09:21:08;;;;;;;48.90;28.98;;;13.20;56.00;;;;;;4953964;29;20039;-69
2023/03/02 09:23:35;;;;;;;45.25;29.65;;;13.60;54.40;;;;;;4955335;28;20490;-69
2023/03/02 09:26:01;;;;;;;55.50;29.05;;;13.60;52.50;;;;;;4955037;28;20378;-68
2023/03/02 09:28:27;;;;;;;44.33;25.83;;;13.50;53.50;;;;;;4954085;29;20118;-69
2023/03/02 09:30:57;;;;;;;41.58;26.80;;;13.30;53.50;;;;;;4955479;29;20170;-69
2023/03/02 09:33:23;;;;;;;45.53;27.25;;;13.30;53.00;;;;;;4954997;28;20028;-68
2023/03/02 09:35:49;;;;;;;42.83;26.20;;;13.70;53.40;;;;;;4953985;29;20031;-69
2023/03/02 09:38:17;;;;;;;44.17;27.67;;;14.00;52.30;;;;;;4957875;28;20039;-68
2023/03/02 09:41:12;;;;;;;48.78;29.13;;;13.90;51.10;;;;;;4957449;29;20596;-69
2023/03/02 09:43:43;;;;;;;48.83;28.85;;;14.50;51.00;;;;;;4958310;29;20031;-69
2023/03/02 09:46:21;;;;;;;50.95;29.77;;;14.70;49.90;;;;;;4958722;28;20027;-68
2023/03/02 09:49:09;;;;;;;45.75;29.25;;;14.50;49.80;;;;;;4957665;29;20062;-68
2023/03/02 09:52:17;;;;;;;47.45;28.52;;;15.00;49.70;;;;;;4958851;29;20031;-69
2023/03/02 09:54:43;;;;;;;44.72;28.42;;;15.40;48.70;;;;;;4942097;29;20062;-69
2023/03/02 09:57:24;;;;;;;50.72;28.77;;;15.80;47.80;;;;;;4958257;28;20066;-69
2023/03/02 09:59:58;;;;;;;43.08;27.80;;;16.40;46.60;;;;;;4958538;28;20043;-68
2023/03/02 10:02:46;;;;;;;41.90;27.90;;;16.00;45.80;;;;;;4957227;29;20028;-69
2023/03/02 10:05:24;;;;;;;50.22;28.52;;;15.60;47.30;;;;;;4958415;28;20061;-69
2023/03/02 10:07:49;;;;;;;44.42;28.35;;;15.90;46.80;;;;;;4956892;29;20118;-69
2023/03/02 10:10:36;;;;;;;49.95;27.88;;;16.10;46.00;;;;;;4956991;29;20130;-69
2023/03/02 10:13:27;;;;;;;44.03;28.00;;;16.10;45.40;;;;;;4957029;29;20075;-69
2023/03/02 10:16:08;;;;;;;42.33;27.60;;;16.20;45.30;;;;;;4955534;29;20046;-68
2023/03/02 10:18:59;;;;;;;45.05;28.52;;;16.20;45.10;;;;;;4958199;28;20027;-69
2023/03/02 10:21:37;;;;;;;44.65;28.08;;;16.30;44.30;;;;;;4957856;29;20035;-69
2023/03/02 10:24:36;;;;;;;40.08;27.40;;;16.40;44.80;;;;;;4957971;29;20027;-69
2023/03/02 10:27:27;;;;;;;44.97;26.42;;;16.30;45.20;;;;;;4956786;29;20070;-69
2023/03/02 10:30:26;;;;;;;38.45;26.48;;;16.50;44.80;;;;;;4956391;29;20056;-69
2023/03/02 10:32:54;;;;;;;49.55;27.80;;;16.40;45.00;;;;;;4945814;28;20130;-69
2023/03/02 10:35:23;;;;;;;38.97;25.65;;;17.00;44.30;;;;;;4957873;28;20034;-69
2023/03/02 10:37:59;;;;;;;44.53;26.33;;;17.30;43.70;;;;;;4957629;28;20027;-69
2023/03/02 10:40:39;;;;;;;45.63;26.67;;;17.50;42.60;;;;;;4957280;28;20452;-69
2023/03/02 10:43:18;;;;;;;37.83;26.00;;;17.40;42.30;;;;;;4957567;29;20028;-69
2023/03/02 10:45:45;;;;;;;42.03;26.38;;;17.50;42.50;;;;;;4956242;29;20463;-68
2023/03/02 10:48:12;;;;;;;45.25;26.20;;;17.10;43.20;;;;;;4955914;28;20035;-68
2023/03/02 10:50:38;;;;;;;45.20;26.38;;;17.40;42.60;;;;;;4957259;28;20027;-68
2023/03/02 10:53:15;;;;;;;44.65;26.15;;;17.90;42.10;;;;;;4957689;28;20034;-68
2023/03/02 10:55:47;;;;;;;37.05;24.35;;;18.50;41.40;;;;;;4956341;29;20066;-68
2023/03/02 10:58:30;;;;;;;42.33;25.58;;;18.50;40.40;;;;;;4956661;29;20379;-68
2023/03/02 11:01:06;;;;;;;39.42;23.75;;;18.00;41.10;;;;;;4956110;29;20058;-68
2023/03/02 11:03:32;;;;;;;34.50;22.85;;;17.90;41.70;;;;;;4957864;28;20114;-68
2023/03/02 11:06:15;;;;;;;34.15;23.08;;;18.10;41.20;;;;;;4955883;29;20031;-68
2023/03/02 11:08:40;;;;;;;40.45;23.67;;;18.20;41.60;;;;;;4957812;28;20039;-69
2023/03/02 11:11:21;;;;;;;37.00;23.60;;;18.30;41.30;;;;;;4955685;29;20028;-68
2023/03/02 11:13:47;;;;;;;33.97;24.40;;;18.40;40.90;;;;;;4956962;28;20031;-68
2023/03/02 11:16:16;;;;;;;42.45;25.15;;;18.80;40.70;;;;;;4957211;28;20352;-68
2023/03/02 11:18:43;;;;;;;40.63;24.95;;;19.20;39.70;;;;;;4955831;29;20027;-68
2023/03/02 11:21:22;;;;;;;39.78;24.60;;;19.30;39.30;;;;;;4956996;29;20035;-68
2023/03/02 11:24:14;;;;;;;35.03;23.98;;;19.10;39.40;;;;;;4956999;28;20038;-68
2023/03/02 11:26:55;;;;;;;33.55;22.95;;;19.40;39.40;;;;;;4955882;29;20102;-68
2023/03/02 11:29:38;;;;;;;31.65;23.50;;;19.40;39.10;;;;;;4956607;28;20090;-68
2023/03/02 11:32:12;;;;;;;40.83;23.88;;;19.70;38.90;;;;;;4957141;29;20035;-69
2023/03/02 11:34:57;;;;;;;33.88;23.40;;;20.20;38.40;;;;;;4956856;28;20027;-69
2023/03/02 11:37:35;;;;;;;34.20;22.63;;;20.30;38.10;;;;;;4956568;29;20079;-63
2023/03/02 11:40:04;;;;;;;35.67;22.90;;;20.20;38.40;;;;;;4956617;28;20126;-63
2023/03/02 11:42:40;;;;;;;30.50;21.35;;;20.00;38.90;;;;;;4956448;28;20085;-63
2023/03/02 11:45:19;;;;;;;34.03;20.52;;;19.50;40.20;;;;;;4956478;28;20096;-63
2023/03/02 11:47:53;;;;;;;30.08;20.45;;;18.90;40.30;;;;;;4954966;29;20032;-63
2023/03/02 11:50:19;;;;;;;34.10;20.83;;;18.70;40.60;;;;;;4956532;29;20042;-68
2023/03/02 11:52:56;;;;;;;33.40;21.77;;;18.30;40.60;;;;;;4956420;29;20393;-68
2023/03/02 11:55:25;;;;;;;33.92;22.33;;;18.00;41.20;;;;;;4956132;28;20050;-69
2023/03/02 11:58:00;;;;;;;36.22;21.83;;;18.20;41.80;;;;;;4955053;29;20105;-69
2023/03/02 12:00:34;;;;;;;30.80;20.23;;;18.40;40.20;;;;;;4954562;28;20043;-68
2023/03/02 12:03:23;;;;;;;24.42;14.50;;;18.00;41.30;;;;;;4955280;29;20027;-69
2023/03/02 12:05:51;;;;;;;18.55;12.80;;;17.90;41.20;;;;;;4956315;28;20027;-68
2023/03/02 12:08:20;;;;;;;19.50;12.73;;;18.60;40.80;;;;;;4956240;29;20099;-69
2023/03/02 12:11:24;;;;;;;15.40;11.43;;;17.60;41.90;;;;;;4956129;29;20038;-68
2023/03/02 12:14:03;;;;;;;19.90;12.63;;;18.10;41.30;;;;;;4954189;29;20031;-69
2023/03/02 12:16:42;;;;;;;;;;;18.00;39.60;;;;;;4956496;28;20030;-69
2023/03/02 12:19:27;;;;;;;22.23;14.60;;;17.80;41.00;;;;;;4956404;28;20363;-69
2023/03/02 12:22:07;;;;;;;23.50;15.05;;;17.40;40.70;;;;;;4954972;29;20434;-70
2023/03/02 12:24:38;;;;;;;22.17;15.45;;;17.90;40.70;;;;;;4954649;29;20463;-70
2023/03/02 12:27:19;;;;;;;20.30;13.30;;;18.60;40.40;;;;;;4954665;29;20034;-69
2023/03/02 12:29:47;;;;;;;20.25;14.85;;;19.00;39.10;;;;;;4969230;28;20046;-69
2023/03/02 12:32:21;;;;;;;21.52;15.55;;;17.10;39.30;;;;;;4975054;28;20077;-69
2023/03/02 12:35:09;;;;;;;23.23;15.93;;;16.60;41.20;;;;;;4973869;28;20022;-69
2023/03/02 12:37:57;;;;;;;23.57;14.77;;;16.40;42.40;;;;;;4975329;28;20027;-69
2023/03/02 12:40:43;;;;;;;21.80;13.45;;;16.50;40.40;;;;;;4975015;28;20681;-69
2023/03/02 12:43:18;;;;;;;20.00;13.65;;;16.40;40.50;;;;;;4973810;28;20023;-69
2023/03/02 12:46:12;;;;;;;17.45;12.15;;;16.60;39.00;;;;;;4973799;28;20027;-68